createdAt,value
2019-02-17T00:00:47.472Z,77.22
2019-02-17T00:03:17.216Z,77.04
2019-02-17T00:05:47.455Z,76.89
2019-02-17T00:08:16.899Z,76.68
2019-02-17T00:10:46.645Z,76.92
2019-02-17T00:13:16.514Z,77.02
2019-02-17T00:15:46.126Z,77.16
2019-02-17T00:18:15.930Z,77.50
2019-02-17T00:20:45.453Z,77.76
2019-02-17T00:23:14.758Z,77.82
2019-02-17T00:25:44.455Z,77.52
2019-02-17T00:28:14.172Z,78.00
2019-02-17T00:30:43.624Z,78.01
2019-02-17T00:33:13.405Z,77.98
2019-02-17T00:35:43.770Z,78.04
2019-02-17T00:38:14.098Z,78.38
2019-02-17T00:40:44.200Z,78.26
2019-02-17T00:43:13.549Z,78.57
2019-02-17T00:45:43.188Z,78.62
2019-02-17T00:48:12.907Z,78.67
2019-02-17T00:50:42.228Z,79.16
2019-02-17T00:53:11.585Z,79.52
2019-02-17T00:55:40.938Z,79.79
2019-02-17T00:58:10.291Z,79.87
2019-02-17T01:00:40.085Z,79.81
2019-02-17T01:03:10.729Z,80.39
2019-02-17T01:05:41.942Z,80.50
2019-02-17T01:08:11.435Z,80.72
2019-02-17T01:10:41.160Z,80.97
2019-02-17T01:13:11.834Z,81.40
2019-02-17T01:15:41.760Z,81.33
2019-02-17T01:18:12.067Z,80.95
2019-02-17T01:20:42.352Z,80.74
2019-02-17T01:23:12.037Z,80.38
2019-02-17T01:25:42.328Z,79.99
2019-02-17T01:28:12.582Z,80.58
2019-02-17T01:30:43.329Z,80.16
2019-02-17T01:33:12.659Z,80.16
2019-02-17T01:35:42.463Z,80.60
2019-02-17T01:38:12.168Z,81.05
2019-02-17T01:40:42.800Z,81.41
2019-02-17T01:43:12.537Z,81.60
2019-02-17T01:45:42.901Z,81.87
2019-02-17T01:48:13.071Z,82.14
2019-02-17T01:50:42.963Z,82.44
2019-02-17T01:53:13.996Z,82.35
2019-02-17T01:55:43.328Z,82.52
2019-02-17T01:58:13.128Z,82.29
2019-02-17T02:00:42.970Z,82.33
2019-02-17T02:03:12.319Z,82.56
2019-02-17T02:05:41.988Z,82.69
2019-02-17T02:08:11.372Z,82.85
2019-02-17T02:10:41.498Z,82.99
2019-02-17T02:13:11.305Z,83.29
2019-02-17T02:15:41.073Z,83.21
2019-02-17T02:18:11.739Z,82.90
2019-02-17T02:20:41.977Z,82.91
2019-02-17T02:23:12.112Z,83.05
2019-02-17T02:25:42.024Z,83.28
2019-02-17T02:28:11.397Z,83.06
2019-02-17T02:30:41.208Z,82.64
2019-02-17T02:33:10.651Z,82.97
2019-02-17T02:35:40.005Z,83.22
2019-02-17T02:38:09.386Z,83.52
2019-02-17T02:40:38.760Z,83.00
2019-02-17T02:43:08.089Z,83.01
2019-02-17T02:45:38.433Z,83.52
2019-02-17T02:48:07.789Z,83.54
2019-02-17T02:50:37.178Z,82.84
2019-02-17T02:53:06.603Z,82.16
2019-02-17T02:55:35.920Z,82.32
2019-02-17T02:58:07.498Z,82.61
2019-02-17T03:00:38.111Z,82.62
2019-02-17T03:03:07.481Z,82.40
2019-02-17T03:05:39.887Z,82.33
2019-02-17T03:08:09.249Z,82.76
2019-02-17T03:10:39.368Z,82.53
2019-02-17T03:13:10.387Z,82.79
2019-02-17T03:15:40.517Z,83.27
2019-02-17T03:18:10.242Z,83.44
2019-02-17T03:20:40.385Z,82.93
2019-02-17T03:23:09.705Z,83.07
2019-02-17T03:25:40.552Z,83.19
2019-02-17T03:28:10.586Z,83.54
2019-02-17T03:30:40.435Z,82.80
2019-02-17T03:33:10.188Z,82.88
2019-02-17T03:35:39.979Z,82.85
2019-02-17T03:38:10.075Z,82.51
2019-02-17T03:40:39.778Z,82.63
2019-02-17T03:43:09.613Z,82.85
2019-02-17T03:45:39.119Z,83.05
2019-02-17T03:48:08.920Z,83.49
2019-02-17T03:50:38.617Z,83.48
2019-02-17T03:53:08.461Z,83.85
2019-02-17T03:55:38.236Z,83.65
2019-02-17T03:58:09.234Z,83.81
2019-02-17T04:00:39.639Z,84.08
2019-02-17T04:03:09.574Z,84.41
2019-02-17T04:05:40.145Z,84.28
2019-02-17T04:08:10.339Z,84.24
2019-02-17T04:10:40.147Z,83.68
2019-02-17T04:13:11.349Z,83.57
2019-02-17T04:15:41.738Z,83.79
2019-02-17T04:18:11.124Z,84.13
2019-02-17T04:20:41.338Z,84.75
2019-02-17T04:23:11.419Z,85.43
2019-02-17T04:25:41.200Z,85.58
2019-02-17T04:28:11.439Z,85.60
2019-02-17T04:30:41.561Z,86.07
2019-02-17T04:33:11.808Z,86.12
2019-02-17T04:35:41.143Z,85.94
2019-02-17T04:38:10.522Z,85.68
2019-02-17T04:40:40.507Z,85.52
2019-02-17T04:43:11.130Z,85.67
2019-02-17T04:45:41.130Z,85.14
2019-02-17T04:48:11.372Z,84.82
2019-02-17T04:50:40.784Z,84.82
2019-02-17T04:53:10.899Z,85.10
2019-02-17T04:55:41.510Z,85.11
2019-02-17T04:58:10.879Z,85.12
2019-02-17T05:00:40.810Z,84.89
2019-02-17T05:03:10.947Z,84.51
2019-02-17T05:05:40.760Z,84.44
2019-02-17T05:08:10.150Z,84.61
2019-02-17T05:10:40.703Z,84.88
2019-02-17T05:13:10.506Z,85.14
2019-02-17T05:15:40.802Z,85.18
2019-02-17T05:18:10.647Z,85.54
2019-02-17T05:20:41.463Z,85.65
2019-02-17T05:23:11.252Z,85.41
2019-02-17T05:25:42.023Z,85.58
2019-02-17T05:28:12.194Z,85.89
2019-02-17T05:30:52.251Z,86.03
2019-02-17T05:33:14.127Z,86.14
2019-02-17T05:35:43.523Z,86.13
2019-02-17T05:38:12.943Z,86.10
2019-02-17T05:40:42.418Z,86.02
2019-02-17T05:43:13.462Z,85.97
2019-02-17T05:45:44.983Z,86.17
2019-02-17T05:48:14.818Z,85.78
2019-02-17T05:50:45.007Z,85.43
2019-02-17T05:53:16.297Z,84.91
2019-02-17T05:55:46.080Z,84.39
2019-02-17T05:58:15.920Z,83.72
2019-02-17T06:00:46.959Z,83.11
2019-02-17T06:03:17.379Z,81.38
2019-02-17T06:05:47.064Z,80.56
2019-02-17T06:08:17.764Z,79.30
2019-02-17T06:10:47.998Z,77.02
2019-02-17T06:13:17.787Z,77.02
2019-02-17T06:15:48.618Z,75.25
2019-02-17T06:18:18.462Z,75.25
2019-02-17T06:20:47.835Z,74.67
2019-02-17T06:23:17.965Z,74.53
2019-02-17T06:25:47.782Z,74.09
2019-02-17T06:28:17.114Z,73.43
2019-02-17T06:30:46.775Z,72.06
2019-02-17T06:33:17.583Z,71.71
2019-02-17T06:35:47.384Z,71.75
2019-02-17T06:38:17.188Z,70.73
2019-02-17T06:40:47.200Z,70.19
2019-02-17T06:43:17.394Z,69.45
2019-02-17T06:45:48.179Z,68.34
2019-02-17T06:48:19.329Z,67.97
2019-02-17T06:50:49.465Z,67.27
2019-02-17T06:53:19.948Z,67.28
2019-02-17T06:55:54.365Z,66.68
2019-02-17T06:58:23.855Z,66.36
2019-02-17T07:00:55.092Z,65.94
2019-02-17T07:03:24.445Z,65.53
2019-02-17T07:06:22.183Z,65.30
2019-02-17T07:08:51.552Z,65.56
2019-02-17T07:11:23.282Z,66.31
2019-02-17T07:13:52.005Z,65.89
2019-02-17T07:16:22.860Z,65.92
2019-02-17T07:18:52.192Z,65.62
2019-02-17T07:21:21.674Z,65.61
2019-02-17T07:23:51.192Z,65.06
2019-02-17T07:26:20.524Z,64.63
2019-02-17T07:28:49.882Z,64.13
2019-02-17T07:31:19.223Z,63.01
2019-02-17T07:33:48.572Z,62.85
2019-02-17T07:36:17.907Z,61.68
2019-02-17T07:38:47.229Z,61.46
2019-02-17T07:41:16.552Z,61.30
2019-02-17T07:43:45.933Z,60.89
2019-02-17T07:46:17.261Z,61.03
2019-02-17T07:48:46.603Z,61.02
2019-02-17T07:51:16.224Z,61.15
2019-02-17T07:53:45.578Z,59.93
2019-02-17T07:56:15.011Z,59.88
2019-02-17T07:58:44.356Z,59.67
2019-02-17T08:01:13.667Z,58.81
2019-02-17T08:03:42.986Z,58.95
2019-02-17T08:06:12.339Z,58.99
2019-02-17T08:08:41.712Z,58.22
2019-02-17T08:11:11.072Z,58.25
2019-02-17T08:13:40.406Z,58.34
2019-02-17T08:16:09.741Z,58.70
2019-02-17T08:18:39.091Z,58.63
2019-02-17T08:21:08.463Z,57.62
2019-02-17T08:23:37.883Z,58.32
2019-02-17T08:26:07.210Z,57.59
2019-02-17T08:28:36.546Z,56.65
2019-02-17T08:31:05.865Z,55.94
2019-02-17T08:33:38.296Z,55.46
2019-02-17T08:36:07.645Z,52.14
2019-02-17T08:38:36.967Z,54.18
2019-02-17T08:41:06.331Z,54.27
2019-02-17T08:43:35.701Z,55.58
2019-02-17T08:46:06.202Z,54.84
2019-02-17T08:48:35.602Z,54.45
2019-02-17T08:51:04.943Z,55.49
2019-02-17T08:53:34.291Z,55.45
2019-02-17T08:56:03.633Z,56.43
2019-02-17T08:58:33.387Z,56.22
2019-02-17T09:01:02.743Z,56.23
2019-02-17T09:03:32.106Z,57.00
2019-02-17T09:06:01.459Z,56.54
2019-02-17T09:08:30.817Z,55.90
2019-02-17T09:11:00.169Z,55.97
2019-02-17T09:13:29.539Z,56.22
2019-02-17T09:15:58.916Z,54.98
2019-02-17T09:18:28.267Z,55.02
2019-02-17T09:20:57.649Z,52.63
2019-02-17T09:23:27.005Z,52.92
2019-02-17T09:25:56.390Z,52.38
2019-02-17T09:28:25.751Z,52.79
2019-02-17T09:30:55.135Z,52.34
2019-02-17T09:33:24.516Z,51.75
2019-02-17T09:35:53.890Z,51.90
2019-02-17T09:38:23.257Z,51.83
2019-02-17T09:40:52.656Z,52.60
2019-02-17T09:43:22.020Z,51.53
2019-02-17T09:45:51.380Z,50.98
2019-02-17T09:48:20.725Z,49.74
2019-02-17T09:50:50.074Z,50.39
2019-02-17T09:53:19.418Z,50.42
2019-02-17T09:55:48.940Z,50.13
2019-02-17T09:58:18.385Z,49.74
2019-02-17T10:00:48.002Z,50.72
2019-02-17T10:03:18.191Z,51.42
2019-02-17T10:05:47.561Z,50.94
2019-02-17T10:08:16.940Z,50.24
2019-02-17T10:10:46.307Z,50.37
2019-02-17T10:13:15.672Z,49.49
2019-02-17T10:15:45.493Z,49.83
2019-02-17T10:18:14.870Z,50.03
2019-02-17T10:20:44.200Z,49.01
2019-02-17T10:23:13.511Z,48.29
2019-02-17T10:25:43.350Z,47.58
2019-02-17T10:28:12.749Z,47.85
2019-02-17T10:30:43.020Z,47.69
2019-02-17T10:33:12.395Z,47.60
2019-02-17T10:35:41.793Z,46.80
2019-02-17T10:38:11.119Z,45.60
2019-02-17T10:40:41.287Z,45.60
2019-02-17T10:43:11.534Z,46.77
2019-02-17T10:45:40.900Z,46.14
2019-02-17T10:48:11.124Z,45.47
2019-02-17T10:50:40.531Z,45.17
2019-02-17T10:53:09.923Z,45.17
2019-02-17T10:55:39.647Z,44.25
2019-02-17T10:58:09.064Z,43.14
2019-02-17T11:00:38.688Z,43.82
2019-02-17T11:03:09.643Z,43.03
2019-02-17T11:05:39.025Z,41.45
2019-02-17T11:08:08.378Z,41.03
2019-02-17T11:10:38.195Z,41.15
2019-02-17T11:13:07.552Z,41.83
2019-02-17T11:15:36.908Z,41.74
2019-02-17T11:18:06.273Z,42.15
2019-02-17T11:20:35.773Z,42.13
2019-02-17T11:23:05.132Z,42.30
2019-02-17T11:25:34.555Z,41.95
2019-02-17T11:28:04.767Z,42.29
2019-02-17T11:30:34.130Z,40.79
2019-02-17T11:33:03.547Z,39.92
2019-02-17T11:35:32.982Z,41.00
2019-02-17T11:38:02.349Z,40.35
2019-02-17T11:40:31.680Z,39.87
2019-02-17T11:43:00.999Z,39.88
2019-02-17T11:45:30.372Z,38.88
2019-02-17T11:47:59.792Z,38.17
2019-02-17T11:50:29.347Z,39.86
2019-02-17T11:52:58.726Z,40.33
2019-02-17T11:55:28.143Z,40.22
2019-02-17T11:57:57.515Z,40.74
2019-02-17T12:00:26.861Z,41.37
2019-02-17T12:02:56.203Z,40.17
2019-02-17T12:05:25.674Z,39.27
2019-02-17T12:07:56.920Z,38.78
2019-02-17T12:10:26.273Z,37.16
2019-02-17T12:12:55.677Z,37.06
2019-02-17T12:15:25.040Z,36.14
2019-02-17T12:17:54.379Z,36.50
2019-02-17T12:20:41.491Z,35.17
2019-02-17T12:23:17.546Z,36.26
2019-02-17T12:25:54.846Z,35.78
2019-02-17T12:28:34.800Z,33.87
2019-02-17T12:31:04.164Z,33.99
2019-02-17T12:33:33.467Z,34.64
2019-02-17T12:36:02.793Z,35.29
2019-02-17T12:38:32.181Z,34.21
2019-02-17T12:41:01.566Z,34.24
2019-02-17T12:43:30.987Z,35.15
2019-02-17T12:46:00.340Z,35.74
2019-02-17T12:48:29.732Z,35.09
2019-02-17T12:51:00.184Z,35.34
2019-02-17T12:53:29.744Z,34.58
2019-02-17T12:55:59.087Z,34.37
2019-02-17T12:58:30.150Z,33.53
2019-02-17T13:00:59.685Z,32.22
2019-02-17T13:03:29.056Z,32.14
2019-02-17T13:05:58.395Z,31.19
2019-02-17T13:08:27.822Z,31.93
2019-02-17T13:10:57.175Z,32.19
2019-02-17T13:13:26.604Z,32.44
2019-02-17T13:15:56.273Z,31.81
2019-02-17T13:18:26.661Z,31.81
2019-02-17T13:20:56.016Z,31.15
2019-02-17T13:23:25.372Z,30.75
2019-02-17T13:25:54.740Z,30.75
2019-02-17T13:28:24.175Z,30.61
2019-02-17T13:30:53.879Z,30.47
2019-02-17T13:33:23.352Z,30.72
2019-02-17T13:35:52.696Z,30.54
2019-02-17T13:38:22.024Z,31.24
2019-02-17T13:40:51.432Z,31.37
2019-02-17T13:43:21.036Z,31.05
2019-02-17T13:45:50.501Z,31.51
2019-02-17T13:48:19.894Z,31.81
2019-02-17T13:50:49.292Z,32.39
2019-02-17T13:53:18.694Z,32.82
2019-02-17T13:55:48.051Z,32.74
2019-02-17T13:58:17.398Z,33.24
2019-02-17T14:00:47.024Z,34.29
2019-02-17T14:03:16.373Z,35.03
2019-02-17T14:05:46.021Z,36.27
2019-02-17T14:08:15.351Z,37.68
2019-02-17T14:10:44.697Z,36.23
2019-02-17T14:13:14.145Z,36.23
2019-02-17T14:15:43.458Z,36.05
2019-02-17T14:18:12.859Z,37.27
2019-02-17T14:20:42.215Z,36.38
2019-02-17T14:23:11.633Z,36.39
2019-02-17T14:25:40.956Z,37.06
2019-02-17T14:28:10.303Z,36.73
2019-02-17T14:30:39.721Z,36.54
2019-02-17T14:33:09.132Z,36.66
2019-02-17T14:35:38.498Z,37.44
2019-02-17T14:38:07.991Z,36.54
2019-02-17T14:40:37.339Z,36.87
2019-02-17T14:43:06.688Z,36.34
2019-02-17T14:45:36.036Z,36.13
2019-02-17T14:48:05.362Z,36.50
2019-02-17T14:50:34.726Z,37.08
2019-02-17T14:53:04.342Z,37.04
2019-02-17T14:55:33.672Z,37.69
2019-02-17T14:58:05.711Z,37.64
2019-02-17T15:00:34.147Z,37.65
2019-02-17T15:03:03.490Z,38.13
2019-02-17T15:05:32.905Z,38.12
2019-02-17T15:08:02.811Z,37.97
2019-02-17T15:10:32.149Z,37.67
2019-02-17T15:13:01.569Z,37.96
2019-02-17T15:15:30.923Z,37.78
2019-02-17T15:18:00.282Z,38.26
2019-02-17T15:20:29.613Z,38.74
2019-02-17T15:22:58.984Z,39.22
2019-02-17T15:25:28.316Z,39.91
2019-02-17T15:27:57.654Z,39.01
2019-02-17T15:30:26.987Z,39.31
2019-02-17T15:33:03.534Z,40.05
2019-02-17T15:35:27.470Z,40.57
2019-02-17T15:37:56.801Z,40.90
2019-02-17T15:40:26.130Z,40.97
2019-02-17T15:42:55.433Z,41.51
2019-02-17T15:45:24.770Z,41.82
2019-02-17T15:47:54.126Z,42.49
2019-02-17T15:50:23.483Z,42.60
2019-02-17T15:52:55.358Z,42.77
2019-02-17T15:55:24.746Z,43.46
2019-02-17T15:57:54.055Z,43.53
2019-02-17T16:00:23.439Z,43.51
2019-02-17T16:02:52.790Z,43.90
2019-02-17T16:05:22.161Z,44.24
2019-02-17T16:07:51.538Z,44.54
2019-02-17T16:10:20.895Z,44.78
2019-02-17T16:12:50.299Z,44.68
2019-02-17T16:15:19.734Z,45.11
2019-02-17T16:17:49.105Z,45.12
2019-02-17T16:20:18.457Z,45.29
2019-02-17T16:22:47.999Z,45.75
2019-02-17T16:25:17.378Z,45.88
2019-02-17T16:27:46.725Z,46.20
2019-02-17T16:30:16.280Z,46.86
2019-02-17T16:32:45.659Z,47.81
2019-02-17T16:35:15.076Z,47.19
2019-02-17T16:37:44.461Z,47.19
2019-02-17T16:40:15.044Z,47.81
2019-02-17T16:42:44.795Z,47.75
2019-02-17T16:45:13.983Z,48.25
2019-02-17T16:47:43.814Z,48.60
2019-02-17T16:50:15.569Z,48.99
2019-02-17T16:52:44.931Z,49.13
2019-02-17T16:55:14.512Z,49.15
2019-02-17T16:57:43.926Z,49.44
2019-02-17T17:00:16.065Z,49.30
2019-02-17T17:02:45.546Z,49.43
2019-02-17T17:05:18.004Z,49.57
2019-02-17T17:07:47.368Z,49.66
2019-02-17T17:10:17.141Z,50.07
2019-02-17T17:12:46.486Z,50.53
2019-02-17T17:15:16.651Z,50.80
2019-02-17T17:17:46.127Z,51.04
2019-02-17T17:20:15.891Z,51.23
2019-02-17T17:22:45.267Z,51.79
2019-02-17T17:25:15.421Z,52.35
2019-02-17T17:27:44.762Z,52.32
2019-02-17T17:30:14.562Z,52.96
2019-02-17T17:32:44.883Z,53.00
2019-02-17T17:35:14.455Z,53.07
2019-02-17T17:37:44.772Z,53.40
2019-02-17T17:40:14.449Z,53.78
2019-02-17T17:42:43.826Z,53.97
2019-02-17T17:45:14.063Z,54.08
2019-02-17T17:47:43.421Z,54.66
2019-02-17T17:50:13.563Z,54.56
2019-02-17T17:52:43.825Z,55.02
2019-02-17T17:55:13.634Z,55.29
2019-02-17T17:57:43.013Z,55.39
2019-02-17T18:00:14.966Z,55.37
2019-02-17T18:02:44.362Z,55.59
2019-02-17T18:05:13.898Z,55.68
2019-02-17T18:07:43.309Z,55.80
2019-02-17T18:10:13.749Z,56.16
2019-02-17T18:12:43.111Z,56.32
2019-02-17T18:15:13.465Z,56.55
2019-02-17T18:17:42.688Z,56.57
2019-02-17T18:20:12.348Z,56.99
2019-02-17T18:22:41.793Z,56.96
2019-02-17T18:25:11.865Z,57.21
2019-02-17T18:27:41.215Z,57.25
2019-02-17T18:30:13.274Z,57.83
2019-02-17T18:32:42.644Z,57.80
2019-02-17T18:35:19.222Z,58.07
2019-02-17T18:37:43.118Z,57.83
2019-02-17T18:40:12.516Z,58.18
2019-02-17T18:42:41.853Z,57.94
2019-02-17T18:45:11.890Z,58.31
2019-02-17T18:47:41.445Z,58.09
2019-02-17T18:50:20.412Z,58.09
2019-02-17T18:52:49.918Z,58.25
2019-02-17T18:55:19.458Z,58.25
2019-02-17T18:57:50.839Z,58.34
2019-02-17T19:00:19.816Z,58.27
2019-02-17T19:02:51.013Z,58.40
2019-02-17T19:05:31.044Z,58.49
2019-02-17T19:07:51.597Z,58.68
2019-02-17T19:10:21.062Z,58.59
2019-02-17T19:12:51.847Z,58.40
2019-02-17T19:15:21.675Z,58.58
2019-02-17T19:17:51.035Z,58.90
2019-02-17T19:20:21.288Z,58.72
2019-02-17T19:22:50.671Z,58.95
2019-02-17T19:25:20.035Z,58.65
2019-02-17T19:27:49.362Z,58.76
2019-02-17T19:30:21.173Z,59.24
2019-02-17T19:32:50.572Z,58.74
2019-02-17T19:35:20.009Z,59.11
2019-02-17T19:37:49.395Z,58.83
2019-02-17T19:40:19.003Z,58.95
2019-02-17T19:42:49.607Z,58.64
2019-02-17T19:45:19.076Z,58.39
2019-02-17T19:47:48.950Z,58.61
2019-02-17T19:50:19.094Z,58.53
2019-02-17T19:52:48.470Z,58.48
2019-02-17T19:55:17.855Z,58.44
2019-02-17T19:57:47.343Z,58.64
2019-02-17T20:00:16.715Z,58.67
2019-02-17T20:03:05.034Z,58.65
2019-02-17T20:05:36.645Z,58.83
2019-02-17T20:08:07.309Z,59.01
2019-02-17T20:10:36.660Z,59.22
2019-02-17T20:13:08.245Z,58.87
2019-02-17T20:15:37.265Z,59.27
2019-02-17T20:18:06.800Z,59.19
2019-02-17T20:20:38.447Z,59.25
2019-02-17T20:23:08.207Z,59.20
2019-02-17T20:25:37.579Z,59.24
2019-02-17T20:28:07.107Z,59.27
2019-02-17T20:30:36.539Z,59.34
2019-02-17T20:33:05.881Z,59.51
2019-02-17T20:35:35.273Z,59.68
2019-02-17T20:38:06.182Z,59.68
2019-02-17T20:40:35.525Z,59.78
2019-02-17T20:43:04.860Z,59.79
2019-02-17T20:45:34.229Z,59.86
2019-02-17T20:48:03.592Z,59.90
2019-02-17T20:50:33.035Z,59.96
2019-02-17T20:53:02.431Z,59.80
2019-02-17T20:55:31.862Z,60.14
2019-02-17T20:58:01.214Z,60.29
2019-02-17T21:00:30.556Z,60.38
2019-02-17T21:03:01.110Z,60.53
2019-02-17T21:05:30.509Z,60.51
2019-02-17T21:07:59.944Z,60.87
2019-02-17T21:10:29.256Z,61.19
2019-02-17T21:12:58.605Z,60.94
2019-02-17T21:15:27.989Z,60.90
2019-02-17T21:17:57.417Z,61.80
2019-02-17T21:20:27.249Z,61.09
2019-02-17T21:22:56.836Z,61.02
2019-02-17T21:25:26.608Z,61.14
2019-02-17T21:27:56.025Z,61.40
2019-02-17T21:30:25.355Z,61.50
2019-02-17T21:32:54.722Z,62.60
2019-02-17T21:35:24.137Z,62.04
2019-02-17T21:37:53.588Z,61.94
2019-02-17T21:40:22.957Z,62.09
2019-02-17T21:42:52.365Z,62.93
2019-02-17T21:45:21.719Z,63.98
2019-02-17T21:47:51.040Z,64.94
2019-02-17T21:50:20.403Z,65.59
2019-02-17T21:52:49.725Z,65.76
2019-02-17T21:55:19.142Z,66.28
2019-02-17T21:57:48.482Z,68.25
2019-02-17T22:00:19.441Z,69.97
2019-02-17T22:02:48.943Z,70.87
2019-02-17T22:05:19.243Z,71.26
2019-02-17T22:07:48.672Z,73.06
2019-02-17T22:10:18.045Z,73.12
2019-02-17T22:12:47.438Z,73.12
2019-02-17T22:15:16.859Z,72.80
2019-02-17T22:17:46.259Z,73.70
2019-02-17T22:20:15.673Z,74.97
2019-02-17T22:22:45.008Z,75.03
2019-02-17T22:25:14.924Z,74.87
2019-02-17T22:27:44.385Z,74.87
2019-02-17T22:30:13.858Z,74.95
2019-02-17T22:32:43.373Z,74.95
2019-02-17T22:35:12.823Z,74.85
2019-02-17T22:37:42.202Z,74.78
2019-02-17T22:40:11.550Z,74.79
2019-02-17T22:42:40.922Z,74.85
2019-02-17T22:45:10.371Z,74.85
2019-02-17T22:47:39.745Z,74.76
2019-02-17T22:50:09.990Z,74.37
2019-02-17T22:52:39.383Z,74.52
2019-02-17T22:55:09.853Z,74.50
2019-02-17T22:57:39.260Z,74.00
2019-02-17T23:00:35.256Z,73.85
2019-02-17T23:03:05.196Z,73.98
2019-02-17T23:05:35.732Z,74.55
2019-02-17T23:08:05.056Z,74.46
2019-02-17T23:10:34.398Z,74.19
2019-02-17T23:13:03.948Z,74.19
2019-02-17T23:15:33.481Z,73.98
2019-02-17T23:18:02.827Z,74.03
2019-02-17T23:20:32.269Z,73.85
2019-02-17T23:23:01.662Z,73.92
2019-02-17T23:25:31.168Z,73.80
2019-02-17T23:28:00.599Z,73.87
2019-02-17T23:30:29.984Z,74.58
2019-02-17T23:32:59.379Z,74.37
2019-02-17T23:35:28.753Z,74.18
2019-02-17T23:37:58.099Z,74.15
2019-02-17T23:40:27.472Z,74.81
2019-02-17T23:42:56.800Z,74.81
2019-02-17T23:45:26.162Z,75.03
2019-02-17T23:47:55.490Z,75.11
2019-02-17T23:50:24.887Z,73.09
2019-02-17T23:52:54.777Z,73.09
2019-02-17T23:55:24.168Z,73.32
2019-02-17T23:57:53.517Z,73.11
